createdAt,value
2022-10-24T00:01:44.821Z,15.29
2022-10-24T00:04:47.195Z,15.27
2022-10-24T00:07:50.797Z,15.24
2022-10-24T00:10:53.268Z,15.29
2022-10-24T00:13:57.221Z,15.16
2022-10-24T00:16:59.500Z,15.16
2022-10-24T00:20:02.050Z,15.09
2022-10-24T00:23:04.821Z,15.03
2022-10-24T00:26:07.662Z,15.08
2022-10-24T00:29:09.909Z,15.07
2022-10-24T00:32:12.211Z,15.12
2022-10-24T00:35:14.638Z,15.10
2022-10-24T00:38:16.882Z,15.08
2022-10-24T00:41:22.364Z,15.19
2022-10-24T00:44:27.435Z,15.21
2022-10-24T00:47:29.712Z,15.12
2022-10-24T00:50:32.061Z,15.12
2022-10-24T00:53:37.931Z,15.16
2022-10-24T00:57:08.449Z,15.15
2022-10-24T01:00:15.441Z,15.10
2022-10-24T01:03:18.043Z,15.08
2022-10-24T01:06:32.067Z,15.14
2022-10-24T01:09:56.123Z,15.08
2022-10-24T01:13:20.311Z,15.21
2022-10-24T01:16:34.582Z,15.15
2022-10-24T01:20:07.588Z,15.17
2022-10-24T01:23:40.959Z,15.27
2022-10-24T01:27:08.305Z,15.21
2022-10-24T01:30:15.073Z,15.20
2022-10-24T01:33:31.846Z,15.21
2022-10-24T01:36:40.154Z,15.24
2022-10-24T01:39:49.762Z,15.20
2022-10-24T01:42:54.083Z,15.19
2022-10-24T01:46:01.502Z,15.27
2022-10-24T01:49:12.579Z,15.20
2022-10-24T01:52:16.118Z,15.22
2022-10-24T01:55:18.572Z,15.19
2022-10-24T01:58:21.204Z,15.25
2022-10-24T02:01:24.723Z,15.29
2022-10-24T02:04:29.989Z,15.30
2022-10-24T02:07:34.112Z,15.30
2022-10-24T02:10:42.412Z,15.39
2022-10-24T02:13:56.674Z,15.39
2022-10-24T02:17:00.321Z,15.34
2022-10-24T02:20:03.836Z,15.27
2022-10-24T02:23:15.185Z,15.30
2022-10-24T02:26:27.486Z,15.19
2022-10-24T02:29:30.849Z,15.20
2022-10-24T02:32:46.003Z,15.15
2022-10-24T02:35:48.877Z,15.10
2022-10-24T02:38:52.486Z,15.21
2022-10-24T02:41:55.919Z,15.15
2022-10-24T02:44:58.731Z,15.10
2022-10-24T02:48:03.145Z,15.19
2022-10-24T02:51:06.189Z,15.17
2022-10-24T02:54:08.726Z,15.22
2022-10-24T02:57:11.334Z,15.18
2022-10-24T03:00:14.036Z,15.20
2022-10-24T03:03:16.341Z,15.12
2022-10-24T03:06:19.439Z,15.17
2022-10-24T03:09:21.741Z,15.10
2022-10-24T03:12:24.323Z,15.16
2022-10-24T03:15:26.650Z,15.14
2022-10-24T03:18:28.937Z,15.16
2022-10-24T03:21:31.222Z,15.22
2022-10-24T03:24:43.904Z,15.23
2022-10-24T03:27:55.850Z,15.16
2022-10-24T03:30:58.203Z,15.11
2022-10-24T03:34:00.523Z,15.16
2022-10-24T03:37:02.860Z,15.07
2022-10-24T03:40:05.604Z,14.91
2022-10-24T03:43:07.818Z,14.89
2022-10-24T03:46:10.156Z,14.92
2022-10-24T03:49:12.387Z,14.87
2022-10-24T03:52:14.671Z,14.91
2022-10-24T03:55:17.026Z,14.97
2022-10-24T03:58:19.293Z,14.90
2022-10-24T04:01:22.167Z,14.89
2022-10-24T04:04:24.473Z,14.74
2022-10-24T04:07:26.817Z,14.66
2022-10-24T04:10:29.339Z,14.81
2022-10-24T04:13:31.937Z,14.78
2022-10-24T04:16:34.951Z,14.72
2022-10-24T04:19:37.258Z,14.72
2022-10-24T04:22:39.558Z,14.77
2022-10-24T04:25:42.009Z,14.78
2022-10-24T04:28:46.907Z,14.75
2022-10-24T04:31:49.158Z,14.80
2022-10-24T04:34:51.473Z,14.77
2022-10-24T04:37:53.969Z,14.82
2022-10-24T04:40:57.555Z,14.79
2022-10-24T04:43:59.964Z,14.53
2022-10-24T04:47:02.310Z,14.45
2022-10-24T04:50:05.245Z,14.49
2022-10-24T04:53:07.486Z,14.57
2022-10-24T04:56:09.839Z,14.54
2022-10-24T04:59:12.153Z,14.43
2022-10-24T05:02:14.562Z,14.33
2022-10-24T05:05:17.282Z,14.28
2022-10-24T05:08:19.611Z,14.29
2022-10-24T05:11:21.933Z,14.32
2022-10-24T05:14:24.895Z,14.25
2022-10-24T05:17:27.232Z,14.30
2022-10-24T05:20:29.522Z,14.46
2022-10-24T05:23:31.973Z,14.52
2022-10-24T05:26:34.512Z,14.51
2022-10-24T05:29:37.197Z,14.59
2022-10-24T05:32:39.938Z,14.66
2022-10-24T05:35:42.377Z,14.72
2022-10-24T05:38:44.660Z,14.61
2022-10-24T05:41:47.435Z,14.84
2022-10-24T05:44:51.146Z,14.81
2022-10-24T05:47:53.606Z,14.74
2022-10-24T05:50:57.873Z,14.74
2022-10-24T05:54:00.271Z,14.78
2022-10-24T05:57:02.610Z,14.83
2022-10-24T06:00:07.189Z,14.85
2022-10-24T06:03:15.973Z,14.85
2022-10-24T06:06:18.298Z,14.74
2022-10-24T06:09:20.567Z,14.72
2022-10-24T06:12:23.208Z,14.71
2022-10-24T06:15:25.667Z,14.73
2022-10-24T06:18:28.322Z,14.67
2022-10-24T06:21:30.594Z,14.63
2022-10-24T06:24:38.337Z,14.72
2022-10-24T06:27:41.637Z,14.71
2022-10-24T06:30:44.311Z,14.63
2022-10-24T06:33:46.617Z,14.64
2022-10-24T06:36:49.005Z,14.67
2022-10-24T06:39:51.331Z,14.70
2022-10-24T06:42:53.646Z,14.72
2022-10-24T06:45:56.197Z,14.60
2022-10-24T06:48:59.008Z,14.70
2022-10-24T06:52:01.452Z,14.70
2022-10-24T06:55:04.316Z,14.76
2022-10-24T06:58:07.189Z,14.88
2022-10-24T07:01:15.355Z,14.57
2022-10-24T07:04:17.733Z,14.61
2022-10-24T07:07:21.498Z,14.53
2022-10-24T07:10:25.755Z,14.38
2022-10-24T07:13:30.572Z,14.53
2022-10-24T07:16:37.302Z,14.79
2022-10-24T07:19:39.633Z,14.80
2022-10-24T07:22:42.967Z,14.66
2022-10-24T07:25:45.711Z,14.82
2022-10-24T07:28:53.437Z,14.74
2022-10-24T07:31:56.093Z,14.75
2022-10-24T07:34:58.359Z,14.70
2022-10-24T07:38:00.770Z,14.77
2022-10-24T07:41:06.464Z,14.85
2022-10-24T07:44:10.297Z,15.10
2022-10-24T07:47:12.569Z,15.37
2022-10-24T07:50:17.307Z,15.76
2022-10-24T07:53:19.689Z,15.91
2022-10-24T07:56:22.284Z,15.98
2022-10-24T07:59:41.269Z,16.04
2022-10-24T08:02:44.826Z,16.01
2022-10-24T08:05:47.585Z,15.96
2022-10-24T08:08:49.972Z,16.00
2022-10-24T08:11:52.444Z,15.99
2022-10-24T08:14:55.920Z,16.15
2022-10-24T08:17:58.212Z,16.21
2022-10-24T08:21:01.912Z,16.23
2022-10-24T08:24:04.823Z,16.31
2022-10-24T08:27:07.611Z,16.33
2022-10-24T08:30:10.261Z,16.26
2022-10-24T08:33:17.346Z,16.17
2022-10-24T08:36:24.071Z,16.12
2022-10-24T08:39:27.151Z,16.04
2022-10-24T08:42:29.478Z,16.06
2022-10-24T08:46:07.127Z,15.98
2022-10-24T08:49:18.134Z,15.96
2022-10-24T08:52:28.254Z,15.83
2022-10-24T08:55:55.223Z,15.76
2022-10-24T08:58:57.987Z,15.65
2022-10-24T09:02:22.200Z,15.60
2022-10-24T09:05:37.798Z,15.31
2022-10-24T09:09:12.138Z,15.18
2022-10-24T09:12:16.677Z,15.28
2022-10-24T09:15:30.904Z,15.39
2022-10-24T09:18:41.315Z,15.47
2022-10-24T09:21:43.894Z,15.50
2022-10-24T09:24:51.259Z,15.44
2022-10-24T09:27:53.526Z,15.39
2022-10-24T09:30:55.831Z,15.48
2022-10-24T09:34:00.589Z,15.67
2022-10-24T09:37:02.964Z,15.74
2022-10-24T09:40:22.451Z,15.71
2022-10-24T09:43:47.134Z,15.81
2022-10-24T09:47:29.005Z,15.90
2022-10-24T09:50:34.347Z,15.95
2022-10-24T09:53:39.639Z,15.99
2022-10-24T09:56:42.441Z,15.95
2022-10-24T10:00:00.327Z,15.97
2022-10-24T10:03:02.614Z,16.01
2022-10-24T10:06:14.510Z,15.87
2022-10-24T10:09:27.986Z,15.86
2022-10-24T10:12:39.457Z,15.91
2022-10-24T10:16:06.917Z,15.95
2022-10-24T10:19:21.177Z,15.81
2022-10-24T10:22:32.016Z,15.88
2022-10-24T10:25:34.313Z,16.01
2022-10-24T10:28:43.265Z,16.08
2022-10-24T10:32:11.873Z,16.03
2022-10-24T10:35:37.686Z,16.16
2022-10-24T10:38:46.037Z,16.18
2022-10-24T10:41:49.165Z,16.12
2022-10-24T10:44:58.677Z,16.04
2022-10-24T10:48:19.688Z,16.06
2022-10-24T10:51:40.847Z,16.15
2022-10-24T10:55:03.350Z,16.28
2022-10-24T10:58:14.486Z,16.26
2022-10-24T11:01:29.624Z,16.25
2022-10-24T11:04:41.066Z,16.32
2022-10-24T11:07:55.375Z,16.35
2022-10-24T11:11:07.967Z,16.34
2022-10-24T11:14:28.769Z,16.33
2022-10-24T11:18:09.332Z,16.52
2022-10-24T11:21:13.785Z,16.68
2022-10-24T11:24:19.773Z,16.71
2022-10-24T11:27:44.359Z,16.84
2022-10-24T11:30:52.177Z,16.96
2022-10-24T11:34:01.623Z,16.87
2022-10-24T11:37:12.164Z,16.79
2022-10-24T11:40:22.389Z,16.76
2022-10-24T11:43:36.768Z,16.64
2022-10-24T11:46:44.844Z,16.68
2022-10-24T11:49:54.196Z,16.75
2022-10-24T11:53:28.879Z,16.78
2022-10-24T11:56:54.549Z,16.71
2022-10-24T11:59:58.003Z,16.60
2022-10-24T12:03:35.909Z,16.82
2022-10-24T12:06:54.075Z,16.89
2022-10-24T12:10:18.257Z,16.90
2022-10-24T12:13:26.608Z,16.91
2022-10-24T12:16:38.649Z,16.90
2022-10-24T12:19:42.357Z,16.85
2022-10-24T12:22:46.404Z,16.75
2022-10-24T12:26:03.048Z,16.63
2022-10-24T12:29:07.534Z,16.57
2022-10-24T12:32:37.646Z,16.56
2022-10-24T12:35:41.446Z,16.64
2022-10-24T12:38:43.873Z,16.71
2022-10-24T12:41:46.341Z,16.68
2022-10-24T12:45:09.464Z,16.69
2022-10-24T12:48:25.755Z,16.69
2022-10-24T12:51:40.839Z,16.62
2022-10-24T12:54:45.013Z,16.63
2022-10-24T12:57:47.709Z,16.43
2022-10-24T13:00:58.076Z,16.47
2022-10-24T13:04:08.598Z,16.58
2022-10-24T13:07:29.583Z,16.61
2022-10-24T13:10:44.057Z,16.65
2022-10-24T13:14:13.861Z,16.67
2022-10-24T13:17:25.051Z,16.66
2022-10-24T13:20:41.148Z,16.62
2022-10-24T13:23:45.631Z,16.64
2022-10-24T13:27:14.614Z,16.80
2022-10-24T13:30:25.789Z,16.82
2022-10-24T13:33:31.159Z,16.81
2022-10-24T13:36:33.566Z,16.73
2022-10-24T13:39:42.441Z,16.73
2022-10-24T13:42:52.431Z,16.78
2022-10-24T13:46:01.668Z,16.78
2022-10-24T13:49:04.941Z,16.83
2022-10-24T13:52:18.704Z,16.73
2022-10-24T13:55:30.893Z,16.68
2022-10-24T13:58:44.337Z,16.65
2022-10-24T14:01:47.589Z,16.57
2022-10-24T14:04:51.906Z,16.56
2022-10-24T14:07:58.685Z,16.55
2022-10-24T14:11:04.006Z,16.70
2022-10-24T14:14:26.597Z,16.70
2022-10-24T14:17:31.400Z,16.63
2022-10-24T14:20:35.911Z,16.56
2022-10-24T14:23:40.809Z,16.46
2022-10-24T14:26:45.691Z,16.40
2022-10-24T14:29:58.588Z,16.44
2022-10-24T14:33:19.071Z,16.40
2022-10-24T14:36:30.040Z,16.38
2022-10-24T14:39:33.198Z,16.35
2022-10-24T14:42:35.493Z,16.41
2022-10-24T14:45:37.819Z,16.41
2022-10-24T14:48:42.143Z,16.38
2022-10-24T14:51:44.738Z,16.25
2022-10-24T14:55:06.644Z,16.30
2022-10-24T14:58:21.647Z,16.20
2022-10-24T15:01:24.758Z,16.23
2022-10-24T15:04:45.910Z,16.31
2022-10-24T15:08:16.818Z,16.40
2022-10-24T15:11:25.185Z,16.46
2022-10-24T15:14:37.106Z,16.58
2022-10-24T15:17:39.436Z,16.63
2022-10-24T15:20:41.809Z,16.60
2022-10-24T15:23:56.178Z,16.55
2022-10-24T15:27:12.713Z,16.39
2022-10-24T15:30:20.812Z,16.31
2022-10-24T15:33:23.087Z,16.16
2022-10-24T15:36:30.694Z,16.13
2022-10-24T15:39:34.049Z,16.06
2022-10-24T15:42:36.327Z,16.00
2022-10-24T15:45:38.949Z,16.07
2022-10-24T15:48:41.220Z,16.09
2022-10-24T15:51:49.028Z,16.09
2022-10-24T15:54:52.593Z,16.09
2022-10-24T15:57:57.131Z,16.09
2022-10-24T16:00:59.630Z,16.06
2022-10-24T16:04:02.485Z,15.90
2022-10-24T16:07:05.065Z,15.91
2022-10-24T16:10:07.636Z,15.95
2022-10-24T16:13:12.900Z,16.08
2022-10-24T16:16:15.262Z,16.11
2022-10-24T16:19:17.654Z,16.09
2022-10-24T16:22:19.954Z,16.13
2022-10-24T16:25:25.267Z,16.18
2022-10-24T16:28:28.958Z,16.14
2022-10-24T16:31:31.785Z,16.07
2022-10-24T16:34:34.042Z,16.03
2022-10-24T16:37:36.394Z,15.86
2022-10-24T16:40:43.653Z,15.95
2022-10-24T16:43:49.127Z,16.02
2022-10-24T16:46:54.161Z,15.93
2022-10-24T16:49:57.001Z,15.86
2022-10-24T16:53:01.877Z,15.92
2022-10-24T16:56:04.306Z,16.00
2022-10-24T16:59:07.100Z,15.97
2022-10-24T17:02:12.495Z,15.96
2022-10-24T17:05:15.612Z,16.05
2022-10-24T17:08:17.844Z,15.95
2022-10-24T17:11:43.782Z,15.95
2022-10-24T17:14:42.462Z,15.83
2022-10-24T17:17:45.324Z,15.72
2022-10-24T17:20:48.339Z,15.73
2022-10-24T17:23:54.181Z,15.72
2022-10-24T17:26:56.780Z,15.68
2022-10-24T17:29:59.204Z,15.62
2022-10-24T17:33:01.624Z,15.50
2022-10-24T17:36:04.657Z,15.50
2022-10-24T17:39:13.395Z,15.43
2022-10-24T17:42:15.927Z,15.30
2022-10-24T17:45:23.018Z,15.33
2022-10-24T17:48:25.481Z,15.26
2022-10-24T17:51:28.068Z,15.27
2022-10-24T17:54:30.393Z,15.21
2022-10-24T17:57:32.685Z,15.22
2022-10-24T18:00:35.058Z,15.12
2022-10-24T18:03:37.422Z,15.10
2022-10-24T18:06:42.170Z,15.10
2022-10-24T18:09:45.501Z,15.00
2022-10-24T18:12:47.875Z,14.89
2022-10-24T18:15:50.223Z,14.90
2022-10-24T18:18:52.449Z,14.91
2022-10-24T18:21:54.802Z,14.86
2022-10-24T18:24:57.119Z,14.86
2022-10-24T18:27:59.365Z,14.86
2022-10-24T18:31:08.842Z,14.86
2022-10-24T18:34:11.189Z,14.78
2022-10-24T18:37:13.846Z,14.74
2022-10-24T18:40:16.749Z,14.69
2022-10-24T18:43:19.047Z,14.69
2022-10-24T18:46:21.989Z,14.67
2022-10-24T18:49:24.941Z,14.68
2022-10-24T18:52:37.949Z,14.62
2022-10-24T18:55:40.523Z,14.52
2022-10-24T18:58:42.922Z,14.51
2022-10-24T19:02:10.003Z,14.52
2022-10-24T19:05:24.790Z,14.44
2022-10-24T19:08:27.803Z,14.43
2022-10-24T19:11:30.156Z,14.45
2022-10-24T19:14:32.522Z,14.42
2022-10-24T19:17:34.814Z,14.38
2022-10-24T19:20:37.087Z,14.45
2022-10-24T19:23:39.286Z,14.38
2022-10-24T19:26:41.746Z,14.46
2022-10-24T19:29:44.053Z,14.31
2022-10-24T19:32:46.609Z,14.46
2022-10-24T19:35:49.051Z,14.39
2022-10-24T19:38:55.644Z,14.50
2022-10-24T19:41:57.952Z,14.50
2022-10-24T19:45:00.234Z,14.53
2022-10-24T19:48:02.475Z,14.62
2022-10-24T19:51:06.472Z,14.64
2022-10-24T19:54:08.775Z,14.58
2022-10-24T19:57:11.855Z,14.52
2022-10-24T20:00:14.365Z,14.46
2022-10-24T20:03:16.593Z,14.48
2022-10-24T20:06:19.245Z,14.51
2022-10-24T20:09:21.558Z,14.49
2022-10-24T20:12:23.892Z,14.44
2022-10-24T20:15:26.286Z,14.50
2022-10-24T20:18:29.539Z,14.41
2022-10-24T20:21:34.138Z,14.48
2022-10-24T20:24:36.337Z,14.50
2022-10-24T20:27:38.853Z,14.57
2022-10-24T20:30:42.717Z,14.47
2022-10-24T20:33:45.044Z,14.53
2022-10-24T20:36:48.163Z,14.47
2022-10-24T20:39:50.475Z,14.61
2022-10-24T20:42:52.702Z,14.61
2022-10-24T20:45:55.081Z,14.63
2022-10-24T20:48:57.334Z,14.61
2022-10-24T20:51:59.653Z,14.57
2022-10-24T20:55:07.582Z,14.58
2022-10-24T20:58:17.146Z,14.54
2022-10-24T21:01:24.963Z,14.55
2022-10-24T21:04:27.241Z,14.59
2022-10-24T21:07:29.521Z,14.64
2022-10-24T21:10:31.728Z,14.72
2022-10-24T21:13:34.044Z,14.79
2022-10-24T21:16:36.370Z,14.85
2022-10-24T21:19:38.635Z,14.87
2022-10-24T21:22:40.924Z,14.86
2022-10-24T21:25:43.633Z,14.76
2022-10-24T21:28:45.962Z,14.81
2022-10-24T21:31:51.771Z,14.82
2022-10-24T21:34:54.136Z,14.83
2022-10-24T21:37:56.501Z,14.78
2022-10-24T21:41:09.641Z,14.87
2022-10-24T21:44:12.492Z,14.84
2022-10-24T21:47:14.722Z,14.82
2022-10-24T21:50:17.038Z,14.78
2022-10-24T21:53:19.332Z,14.72
2022-10-24T21:56:25.131Z,14.84
2022-10-24T21:59:27.412Z,14.87
2022-10-24T22:02:29.814Z,14.89
2022-10-24T22:05:32.594Z,14.82
2022-10-24T22:08:34.966Z,14.81
2022-10-24T22:11:37.339Z,14.90
2022-10-24T22:14:39.595Z,14.93
2022-10-24T22:17:41.845Z,15.00
2022-10-24T22:20:44.380Z,14.86
2022-10-24T22:23:46.652Z,14.73
2022-10-24T22:26:49.889Z,14.81
2022-10-24T22:29:52.186Z,14.76
2022-10-24T22:32:54.658Z,14.84
2022-10-24T22:35:59.179Z,14.93
2022-10-24T22:39:01.746Z,14.92
2022-10-24T22:42:06.695Z,15.03
2022-10-24T22:45:12.558Z,15.11
2022-10-24T22:48:22.054Z,15.13
2022-10-24T22:51:24.608Z,14.92
2022-10-24T22:54:33.910Z,14.88
2022-10-24T22:57:36.454Z,15.00
2022-10-24T23:00:38.961Z,15.09
2022-10-24T23:04:00.823Z,15.08
2022-10-24T23:07:32.458Z,14.92
2022-10-24T23:10:36.548Z,14.93
2022-10-24T23:13:40.116Z,14.97
2022-10-24T23:16:53.553Z,15.09
2022-10-24T23:19:56.960Z,15.12
2022-10-24T23:23:16.305Z,15.19
2022-10-24T23:27:14.987Z,15.18
2022-10-24T23:30:22.309Z,15.19
2022-10-24T23:33:29.598Z,15.20
2022-10-24T23:36:32.324Z,15.19
2022-10-24T23:39:35.760Z,15.27
2022-10-24T23:42:38.508Z,15.18
2022-10-24T23:45:49.442Z,15.27
2022-10-24T23:49:01.418Z,15.24
2022-10-24T23:52:36.068Z,15.27
2022-10-24T23:55:38.594Z,15.19
2022-10-24T23:58:40.920Z,15.12
